THY8CX LTFM-LEVC
Flight info
| Callsign | THY8CX |
|---|---|
| Flight time | N/A |
| Altitude | 36000 |
| Route | BARPE1E/36 BARPE UG12 GOLDO DCT PINDO/N0453F350 DCT VEGAN/N0451F370 DCT GOKMI DCT SUPUX DCT KUPIM DCT SUXER DCT RIPAL DCT MORSS DCT MHN DCT CDP N733 ARGOR |
| Aircraft | A321/M-SDE3FGHIRWY/LB1 |
Departure
| Time | 2026-05-01 13:39 |
|---|---|
| Airport | İstanbul Airport (LTFM) |
Arrival
| Time | N/A |
|---|---|
| Airport | Valencia Airport (LEVC) |
| Time | Latitude | Longitude | Altitude | Speed | Heading |
|---|---|---|---|---|---|
| 2026-05-01 12:59 | 41.26537 | 28.74978 | 334 ft | 0 kts | 287° |
| 2026-05-01 13:27 | 41.26532 | 28.74999 | 332 ft | 4 kts | 287° |
| 2026-05-01 13:28 | 41.26523 | 28.75038 | 332 ft | 1 kts | 287° |
| 2026-05-01 13:28 | 41.26519 | 28.75068 | 333 ft | 4 kts | 261° |
| 2026-05-01 13:29 | 41.26550 | 28.75112 | 331 ft | 4 kts | 197° |
| 2026-05-01 13:29 | 41.26555 | 28.75114 | 330 ft | 0 kts | 197° |
| 2026-05-01 13:35 | 41.26554 | 28.75114 | 330 ft | 1 kts | 197° |
| 2026-05-01 13:35 | 41.26521 | 28.75100 | 332 ft | 8 kts | 197° |
| 2026-05-01 13:35 | 41.26390 | 28.75048 | 333 ft | 11 kts | 197° |
| 2026-05-01 13:36 | 41.26310 | 28.75014 | 333 ft | 13 kts | 197° |
| 2026-05-01 13:36 | 41.26245 | 28.75052 | 334 ft | 12 kts | 105° |
| 2026-05-01 13:36 | 41.26244 | 28.75187 | 334 ft | 4 kts | 89° |
| 2026-05-01 13:37 | 41.26246 | 28.75294 | 334 ft | 11 kts | 89° |
| 2026-05-01 13:37 | 41.26247 | 28.75362 | 334 ft | 11 kts | 89° |
| 2026-05-01 13:37 | 41.26249 | 28.75504 | 334 ft | 10 kts | 89° |
| 2026-05-01 13:37 | 41.26249 | 28.75520 | 334 ft | 0 kts | 89° |
| 2026-05-01 13:38 | 41.26250 | 28.75594 | 334 ft | 13 kts | 89° |
| 2026-05-01 13:38 | 41.26263 | 28.75665 | 332 ft | 6 kts | 22° |
| 2026-05-01 13:38 | 41.26305 | 28.75665 | 330 ft | 8 kts | 359° |
| 2026-05-01 13:39 | 41.26501 | 28.75662 | 331 ft | 62 kts | 359° |
| 2026-05-01 13:39 | 41.27158 | 28.75650 | 334 ft | 125 kts | 359° |
| 2026-05-01 13:39 | 41.28156 | 28.75639 | 606 ft | 149 kts | 359° |
| 2026-05-01 13:39 | 41.29192 | 28.75625 | 1375 ft | 149 kts | 6° |
| 2026-05-01 13:40 | 41.30129 | 28.76081 | 2110 ft | 146 kts | 38° |
| 2026-05-01 13:40 | 41.30969 | 28.76885 | 2528 ft | 160 kts | 33° |
| 2026-05-01 13:40 | 41.31985 | 28.77706 | 2751 ft | 182 kts | 31° |
| 2026-05-01 13:40 | 41.33153 | 28.78611 | 2952 ft | 207 kts | 31° |
| 2026-05-01 13:41 | 41.34469 | 28.79620 | 3324 ft | 227 kts | 30° |
| 2026-05-01 13:41 | 41.35864 | 28.80680 | 4052 ft | 233 kts | 31° |
| 2026-05-01 13:41 | 41.37267 | 28.81787 | 4870 ft | 236 kts | 37° |
| 2026-05-01 13:41 | 41.38244 | 28.83543 | 5608 ft | 245 kts | 70° |
| 2026-05-01 13:42 | 41.38425 | 28.85838 | 6349 ft | 254 kts | 85° |
| 2026-05-01 13:42 | 41.38446 | 28.88210 | 7082 ft | 259 kts | 86° |
| 2026-05-01 13:42 | 41.38323 | 28.90633 | 7770 ft | 269 kts | 101° |
| 2026-05-01 13:42 | 41.37445 | 28.92878 | 8446 ft | 282 kts | 129° |
| 2026-05-01 13:43 | 41.35823 | 28.94394 | 9145 ft | 292 kts | 159° |
| 2026-05-01 13:43 | 41.33811 | 28.94783 | 9902 ft | 295 kts | 180° |
| 2026-05-01 13:43 | 41.31734 | 28.94805 | 10403 ft | 308 kts | 180° |
| 2026-05-01 13:43 | 41.29510 | 28.94780 | 10596 ft | 330 kts | 186° |
| 2026-05-01 13:44 | 41.27279 | 28.93923 | 11042 ft | 338 kts | 209° |
| 2026-05-01 13:44 | 41.25443 | 28.91992 | 11732 ft | 339 kts | 232° |
| 2026-05-01 13:44 | 41.24304 | 28.89278 | 12499 ft | 338 kts | 254° |
| 2026-05-01 13:44 | 41.23766 | 28.86233 | 13307 ft | 339 kts | 259° |
| 2026-05-01 13:45 | 41.23283 | 28.83159 | 14086 ft | 341 kts | 259° |
| 2026-05-01 13:45 | 41.22809 | 28.80061 | 14751 ft | 343 kts | 259° |
| 2026-05-01 13:45 | 41.22334 | 28.76957 | 15444 ft | 344 kts | 259° |
| 2026-05-01 13:45 | 41.21852 | 28.73839 | 16145 ft | 346 kts | 259° |
| 2026-05-01 13:46 | 41.21360 | 28.70699 | 16794 ft | 348 kts | 258° |
| 2026-05-01 13:46 | 41.20863 | 28.67541 | 17416 ft | 351 kts | 258° |
| 2026-05-01 13:46 | 41.20357 | 28.64359 | 18044 ft | 354 kts | 258° |
| 2026-05-01 13:46 | 41.19843 | 28.61151 | 18633 ft | 356 kts | 258° |
| 2026-05-01 13:47 | 41.19333 | 28.57965 | 19161 ft | 359 kts | 258° |
| 2026-05-01 13:47 | 41.18882 | 28.55147 | 19641 ft | 361 kts | 258° |
| 2026-05-01 13:47 | 41.18360 | 28.51878 | 20183 ft | 363 kts | 258° |
| 2026-05-01 13:47 | 41.17833 | 28.48588 | 20732 ft | 366 kts | 258° |
| 2026-05-01 13:48 | 41.17303 | 28.45277 | 21285 ft | 368 kts | 258° |
| 2026-05-01 13:48 | 41.16771 | 28.41947 | 21836 ft | 370 kts | 258° |
| 2026-05-01 13:48 | 41.16236 | 28.38598 | 22375 ft | 372 kts | 258° |
| 2026-05-01 13:48 | 41.15692 | 28.35228 | 22897 ft | 375 kts | 258° |
| 2026-05-01 13:49 | 41.15142 | 28.31836 | 23406 ft | 377 kts | 258° |
| 2026-05-01 13:49 | 41.14590 | 28.28425 | 23887 ft | 380 kts | 258° |
| 2026-05-01 13:49 | 41.14035 | 28.24990 | 24300 ft | 382 kts | 258° |
| 2026-05-01 13:49 | 41.13478 | 28.21537 | 24710 ft | 384 kts | 258° |
| 2026-05-01 13:50 | 41.12914 | 28.18064 | 25125 ft | 386 kts | 258° |
| 2026-05-01 13:50 | 41.12343 | 28.14578 | 25533 ft | 388 kts | 258° |
| 2026-05-01 13:50 | 41.11766 | 28.11070 | 25935 ft | 390 kts | 258° |
| 2026-05-01 13:50 | 41.11186 | 28.07550 | 26332 ft | 392 kts | 258° |
| 2026-05-01 13:51 | 41.10604 | 28.04011 | 26725 ft | 394 kts | 258° |
| 2026-05-01 13:51 | 41.10017 | 28.00450 | 27122 ft | 396 kts | 258° |
| 2026-05-01 13:51 | 41.09426 | 27.96876 | 27503 ft | 398 kts | 258° |
| 2026-05-01 13:51 | 41.08833 | 27.93281 | 27873 ft | 400 kts | 258° |
| 2026-05-01 13:52 | 41.08236 | 27.89673 | 28254 ft | 402 kts | 258° |
| 2026-05-01 13:52 | 41.07634 | 27.86040 | 28620 ft | 404 kts | 258° |
| 2026-05-01 13:52 | 41.07030 | 27.82390 | 28985 ft | 406 kts | 258° |
| 2026-05-01 13:52 | 41.06423 | 27.78726 | 29340 ft | 408 kts | 257° |
| 2026-05-01 13:53 | 41.05811 | 27.75044 | 29683 ft | 410 kts | 257° |
| 2026-05-01 13:53 | 41.04561 | 27.67627 | 30361 ft | 414 kts | 257° |
| 2026-05-01 13:53 | 41.03931 | 27.63894 | 30632 ft | 416 kts | 257° |
| 2026-05-01 13:54 | 41.03296 | 27.60139 | 30914 ft | 418 kts | 257° |
| 2026-05-01 13:54 | 41.02662 | 27.56378 | 31240 ft | 419 kts | 258° |
| 2026-05-01 13:54 | 41.02038 | 27.52670 | 31620 ft | 418 kts | 258° |
| 2026-05-01 13:54 | 41.01407 | 27.48921 | 31992 ft | 417 kts | 258° |
| 2026-05-01 13:55 | 41.00775 | 27.45179 | 32361 ft | 416 kts | 258° |
| 2026-05-01 13:55 | 41.00141 | 27.41447 | 32714 ft | 415 kts | 258° |
| 2026-05-01 13:55 | 40.99505 | 27.37723 | 33087 ft | 414 kts | 258° |
| 2026-05-01 13:55 | 40.98869 | 27.34007 | 33458 ft | 414 kts | 258° |
| 2026-05-01 13:56 | 40.98234 | 27.30302 | 33814 ft | 413 kts | 258° |
| 2026-05-01 13:56 | 40.97599 | 27.26599 | 34154 ft | 412 kts | 258° |
| 2026-05-01 13:56 | 40.96965 | 27.22903 | 34444 ft | 412 kts | 258° |
| 2026-05-01 13:56 | 40.96331 | 27.19214 | 34705 ft | 411 kts | 258° |
| 2026-05-01 13:57 | 40.95694 | 27.15525 | 34961 ft | 411 kts | 258° |
| 2026-05-01 13:57 | 40.95054 | 27.11841 | 35212 ft | 411 kts | 258° |
| 2026-05-01 13:57 | 40.94411 | 27.08152 | 35458 ft | 411 kts | 258° |
| 2026-05-01 13:57 | 40.93767 | 27.04466 | 35705 ft | 411 kts | 258° |
| 2026-05-01 13:58 | 40.93122 | 27.00774 | 35958 ft | 411 kts | 258° |
| 2026-05-01 13:58 | 40.92584 | 26.97062 | 36156 ft | 412 kts | 264° |
| 2026-05-01 13:58 | 40.92140 | 26.89536 | 36211 ft | 410 kts | 266° |
| 2026-05-01 13:59 | 40.91711 | 26.82021 | 36215 ft | 410 kts | 266° |
| 2026-05-01 13:59 | 40.91262 | 26.74518 | 36211 ft | 410 kts | 266° |
| 2026-05-01 14:00 | 40.90813 | 26.67014 | 36212 ft | 409 kts | 266° |
| 2026-05-01 14:00 | 40.90369 | 26.59559 | 36214 ft | 410 kts | 266° |
| 2026-05-01 14:01 | 40.89913 | 26.52044 | 36218 ft | 410 kts | 265° |
| 2026-05-01 14:01 | 40.89451 | 26.44521 | 36225 ft | 411 kts | 266° |
| 2026-05-01 14:02 | 40.88982 | 26.36991 | 36231 ft | 411 kts | 265° |
| 2026-05-01 14:02 | 40.88509 | 26.29459 | 36233 ft | 411 kts | 265° |
| 2026-05-01 14:03 | 40.88036 | 26.21933 | 36235 ft | 411 kts | 266° |
| 2026-05-01 14:03 | 40.87636 | 26.14411 | 36236 ft | 411 kts | 266° |
| 2026-05-01 14:04 | 40.87257 | 26.06880 | 36239 ft | 411 kts | 266° |
| 2026-05-01 14:04 | 40.86924 | 26.00622 | 36240 ft | 411 kts | 266° |
| 2026-05-01 14:05 | 40.86438 | 25.91833 | 36233 ft | 410 kts | 266° |
| 2026-05-01 14:05 | 40.86020 | 25.84320 | 36238 ft | 410 kts | 266° |
| 2026-05-01 14:06 | 40.85595 | 25.76806 | 36243 ft | 410 kts | 266° |
| 2026-05-01 14:06 | 40.85165 | 25.69290 | 36239 ft | 410 kts | 266° |
| 2026-05-01 14:07 | 40.84725 | 25.61772 | 36237 ft | 411 kts | 266° |
| 2026-05-01 14:08 | 40.84057 | 25.50495 | 36235 ft | 411 kts | 266° |
| 2026-05-01 14:08 | 40.83616 | 25.43022 | 36239 ft | 411 kts | 266° |
| 2026-05-01 14:09 | 40.83165 | 25.35452 | 36236 ft | 411 kts | 266° |
| 2026-05-01 14:09 | 40.82714 | 25.27994 | 36232 ft | 411 kts | 266° |
| 2026-05-01 14:10 | 40.82256 | 25.20479 | 36234 ft | 410 kts | 266° |
| 2026-05-01 14:10 | 40.81787 | 25.12973 | 36232 ft | 410 kts | 266° |
| 2026-05-01 14:11 | 40.81316 | 25.05472 | 36229 ft | 410 kts | 266° |
| 2026-05-01 14:11 | 40.80602 | 24.94241 | 36233 ft | 409 kts | 266° |
| 2026-05-01 14:12 | 40.80120 | 24.86754 | 36231 ft | 409 kts | 266° |
| 2026-05-01 14:12 | 40.79629 | 24.79268 | 36237 ft | 409 kts | 266° |
| 2026-05-01 14:13 | 40.79223 | 24.73048 | 36237 ft | 409 kts | 266° |
| 2026-05-01 14:13 | 40.78645 | 24.64300 | 36237 ft | 409 kts | 266° |
| 2026-05-01 14:14 | 40.78146 | 24.56817 | 36239 ft | 409 kts | 266° |
| 2026-05-01 14:14 | 40.77639 | 24.49347 | 36239 ft | 409 kts | 266° |
| 2026-05-01 14:15 | 40.77129 | 24.41875 | 36235 ft | 409 kts | 266° |
| 2026-05-01 14:15 | 40.76612 | 24.34411 | 36232 ft | 408 kts | 265° |
| 2026-05-01 14:16 | 40.76090 | 24.26950 | 36229 ft | 408 kts | 265° |
| 2026-05-01 14:16 | 40.75566 | 24.19498 | 36228 ft | 408 kts | 265° |
| 2026-05-01 14:17 | 40.75039 | 24.12051 | 36228 ft | 408 kts | 265° |
| 2026-05-01 14:17 | 40.74512 | 24.04650 | 36232 ft | 408 kts | 265° |
| 2026-05-01 14:18 | 40.73973 | 23.97196 | 36232 ft | 408 kts | 265° |
| 2026-05-01 14:18 | 40.73521 | 23.90958 | 36230 ft | 408 kts | 265° |
| 2026-05-01 14:19 | 40.72889 | 23.82315 | 36235 ft | 408 kts | 265° |
| 2026-05-01 14:19 | 40.72341 | 23.74875 | 36237 ft | 408 kts | 265° |
| 2026-05-01 14:20 | 40.71493 | 23.63707 | 36241 ft | 408 kts | 265° |
| 2026-05-01 14:21 | 40.70925 | 23.56255 | 36242 ft | 408 kts | 265° |
| 2026-05-01 14:21 | 40.70354 | 23.48812 | 36243 ft | 408 kts | 265° |
| 2026-05-01 14:22 | 40.69505 | 23.37649 | 36247 ft | 408 kts | 265° |
| 2026-05-01 14:22 | 40.68924 | 23.30215 | 36249 ft | 408 kts | 265° |
| 2026-05-01 14:23 | 40.68332 | 23.22785 | 36254 ft | 408 kts | 265° |
| 2026-05-01 14:23 | 40.67744 | 23.15360 | 36261 ft | 407 kts | 265° |
| 2026-05-01 14:24 | 40.67154 | 23.07991 | 36260 ft | 407 kts | 265° |
| 2026-05-01 14:24 | 40.66554 | 23.00569 | 36263 ft | 407 kts | 265° |
| 2026-05-01 14:25 | 40.65954 | 22.93151 | 36261 ft | 408 kts | 265° |
| 2026-05-01 14:25 | 40.65344 | 22.85732 | 36259 ft | 407 kts | 265° |
| 2026-05-01 14:26 | 40.64421 | 22.74602 | 36256 ft | 408 kts | 265° |
| 2026-05-01 14:27 | 40.63803 | 22.67182 | 36255 ft | 408 kts | 265° |
| 2026-05-01 14:27 | 40.63284 | 22.61018 | 36252 ft | 408 kts | 265° |
| 2026-05-01 14:28 | 40.62335 | 22.49892 | 36249 ft | 408 kts | 265° |
| 2026-05-01 14:28 | 40.61702 | 22.42479 | 36248 ft | 408 kts | 265° |
| 2026-05-01 14:29 | 40.61062 | 22.35064 | 36246 ft | 408 kts | 265° |
| 2026-05-01 14:30 | 40.59764 | 22.20231 | 36243 ft | 408 kts | 265° |
| 2026-05-01 14:31 | 40.58779 | 22.09115 | 36236 ft | 408 kts | 265° |
| 2026-05-01 14:31 | 40.58113 | 22.01701 | 36230 ft | 408 kts | 264° |
| 2026-05-01 14:32 | 40.57442 | 21.94293 | 36228 ft | 408 kts | 264° |
| 2026-05-01 14:32 | 40.56769 | 21.86883 | 36228 ft | 408 kts | 264° |
| 2026-05-01 14:33 | 40.56099 | 21.79475 | 36214 ft | 408 kts | 264° |
| 2026-05-01 14:33 | 40.55417 | 21.72066 | 36219 ft | 408 kts | 264° |
| 2026-05-01 14:34 | 40.54726 | 21.64662 | 36222 ft | 408 kts | 264° |
| 2026-05-01 14:34 | 40.54033 | 21.57257 | 36216 ft | 408 kts | 264° |
| 2026-05-01 14:35 | 40.53333 | 21.49850 | 36197 ft | 408 kts | 264° |
| 2026-05-01 14:35 | 40.52630 | 21.42442 | 36195 ft | 408 kts | 264° |
| 2026-05-01 14:36 | 40.51932 | 21.35085 | 36201 ft | 408 kts | 264° |
| 2026-05-01 14:36 | 40.51228 | 21.27689 | 36183 ft | 408 kts | 264° |
| 2026-05-01 14:37 | 40.50509 | 21.20292 | 36180 ft | 408 kts | 264° |
| 2026-05-01 14:37 | 40.49786 | 21.12898 | 36189 ft | 408 kts | 264° |
| 2026-05-01 14:38 | 40.49061 | 21.05509 | 36171 ft | 408 kts | 264° |
| 2026-05-01 14:38 | 40.48334 | 20.98123 | 36177 ft | 408 kts | 264° |
| 2026-05-01 14:39 | 40.48301 | 20.90718 | 36157 ft | 406 kts | 274° |
| 2026-05-01 14:39 | 40.48649 | 20.83313 | 36155 ft | 406 kts | 274° |
| 2026-05-01 14:40 | 40.48986 | 20.75906 | 36154 ft | 407 kts | 274° |
| 2026-05-01 14:40 | 40.49314 | 20.68486 | 36147 ft | 407 kts | 274° |
| 2026-05-01 14:41 | 40.49633 | 20.61071 | 36128 ft | 406 kts | 274° |
| 2026-05-01 14:41 | 40.49947 | 20.53662 | 36118 ft | 406 kts | 274° |
| 2026-05-01 14:42 | 40.50261 | 20.46244 | 36106 ft | 407 kts | 274° |
| 2026-05-01 14:42 | 40.50570 | 20.38818 | 36095 ft | 407 kts | 274° |
| 2026-05-01 14:43 | 40.50871 | 20.31384 | 36096 ft | 408 kts | 274° |
| 2026-05-01 14:43 | 40.51175 | 20.23942 | 36090 ft | 408 kts | 274° |
| 2026-05-01 14:44 | 40.51475 | 20.16501 | 36087 ft | 408 kts | 274° |
| 2026-05-01 14:44 | 40.51908 | 20.05368 | 36073 ft | 408 kts | 274° |
| 2026-05-01 14:45 | 40.52324 | 19.94183 | 36062 ft | 409 kts | 273° |
| 2026-05-01 14:46 | 40.52604 | 19.86715 | 36061 ft | 409 kts | 274° |
| 2026-05-01 14:46 | 40.53021 | 19.75505 | 36063 ft | 409 kts | 273° |
| 2026-05-01 14:47 | 40.53284 | 19.68029 | 36065 ft | 410 kts | 273° |
| 2026-05-01 14:48 | 40.53668 | 19.56805 | 36069 ft | 410 kts | 273° |
| 2026-05-01 14:48 | 40.54044 | 19.45570 | 36074 ft | 410 kts | 273° |
| 2026-05-01 14:49 | 40.54534 | 19.30595 | 36074 ft | 410 kts | 273° |
| 2026-05-01 14:50 | 40.55007 | 19.15600 | 36082 ft | 411 kts | 273° |
| 2026-05-01 14:51 | 40.55347 | 19.04340 | 36092 ft | 411 kts | 273° |
| 2026-05-01 14:52 | 40.55673 | 18.93117 | 36101 ft | 412 kts | 273° |
| 2026-05-01 14:53 | 40.55986 | 18.81823 | 36113 ft | 412 kts | 273° |
| 2026-05-01 14:53 | 40.56197 | 18.74288 | 36119 ft | 413 kts | 273° |
| 2026-05-01 14:54 | 40.56414 | 18.66742 | 36127 ft | 413 kts | 273° |
| 2026-05-01 14:54 | 40.56614 | 18.59191 | 36137 ft | 413 kts | 273° |
| 2026-05-01 14:55 | 40.56798 | 18.51643 | 36141 ft | 413 kts | 273° |
| 2026-05-01 14:55 | 40.56980 | 18.44086 | 36148 ft | 413 kts | 273° |
| 2026-05-01 14:56 | 40.57158 | 18.36529 | 36157 ft | 413 kts | 273° |
| 2026-05-01 14:56 | 40.57335 | 18.28968 | 36163 ft | 414 kts | 273° |
| 2026-05-01 14:57 | 40.57512 | 18.21404 | 36174 ft | 414 kts | 273° |
| 2026-05-01 14:57 | 40.57764 | 18.10048 | 36177 ft | 414 kts | 273° |
| 2026-05-01 14:58 | 40.57927 | 18.02469 | 36180 ft | 415 kts | 273° |
| 2026-05-01 14:58 | 40.58078 | 17.94887 | 36183 ft | 415 kts | 273° |
| 2026-05-01 14:59 | 40.58233 | 17.87303 | 36182 ft | 415 kts | 273° |
| 2026-05-01 14:59 | 40.58382 | 17.79765 | 36182 ft | 415 kts | 273° |
| 2026-05-01 15:00 | 40.58590 | 17.68379 | 36183 ft | 415 kts | 273° |
| 2026-05-01 15:01 | 40.58726 | 17.60782 | 36186 ft | 415 kts | 273° |
| 2026-05-01 15:01 | 40.58847 | 17.53183 | 36183 ft | 415 kts | 273° |
| 2026-05-01 15:02 | 40.58972 | 17.45586 | 36182 ft | 416 kts | 273° |
| 2026-05-01 15:02 | 40.59098 | 17.37985 | 36182 ft | 416 kts | 273° |
| 2026-05-01 15:03 | 40.59216 | 17.30379 | 36182 ft | 416 kts | 273° |
| 2026-05-01 15:03 | 40.59326 | 17.22770 | 36181 ft | 416 kts | 273° |
| 2026-05-01 15:04 | 40.59421 | 17.15159 | 36183 ft | 416 kts | 273° |
| 2026-05-01 15:04 | 40.59516 | 17.07541 | 36197 ft | 416 kts | 273° |
| 2026-05-01 15:05 | 40.59617 | 16.99925 | 36195 ft | 416 kts | 273° |
| 2026-05-01 15:05 | 40.59709 | 16.92306 | 36200 ft | 417 kts | 273° |
| 2026-05-01 15:06 | 40.59788 | 16.84690 | 36205 ft | 417 kts | 273° |
| 2026-05-01 15:06 | 40.59867 | 16.77060 | 36202 ft | 417 kts | 272° |
| 2026-05-01 15:07 | 40.59938 | 16.69426 | 36171 ft | 417 kts | 273° |
| 2026-05-01 15:07 | 40.60009 | 16.61787 | 36171 ft | 418 kts | 272° |
| 2026-05-01 15:08 | 40.60074 | 16.54145 | 36176 ft | 418 kts | 272° |
| 2026-05-01 15:08 | 40.60133 | 16.46548 | 36181 ft | 418 kts | 272° |
| 2026-05-01 15:09 | 40.60189 | 16.38899 | 36190 ft | 418 kts | 272° |
| 2026-05-01 15:09 | 40.60235 | 16.31192 | 36204 ft | 418 kts | 272° |
| 2026-05-01 15:10 | 40.60280 | 16.23592 | 36212 ft | 418 kts | 272° |
| 2026-05-01 15:10 | 40.60339 | 16.12107 | 36214 ft | 418 kts | 272° |
| 2026-05-01 15:11 | 40.60382 | 16.00619 | 36213 ft | 419 kts | 272° |
| 2026-05-01 15:12 | 40.60408 | 15.92954 | 36214 ft | 419 kts | 272° |
| 2026-05-01 15:12 | 40.60432 | 15.81451 | 36210 ft | 419 kts | 272° |
| 2026-05-01 15:14 | 40.60445 | 15.62263 | 36209 ft | 420 kts | 272° |
| 2026-05-01 15:14 | 40.60444 | 15.50740 | 36206 ft | 420 kts | 272° |
| 2026-05-01 15:15 | 40.60504 | 15.36664 | 36205 ft | 420 kts | 273° |
| 2026-05-01 15:16 | 40.60629 | 15.21278 | 36205 ft | 421 kts | 273° |
| 2026-05-01 15:18 | 40.60727 | 15.02016 | 36210 ft | 421 kts | 273° |
| 2026-05-01 15:19 | 40.60774 | 14.86608 | 36208 ft | 421 kts | 273° |
| 2026-05-01 15:19 | 40.60805 | 14.75046 | 36207 ft | 421 kts | 273° |
| 2026-05-01 15:20 | 40.60830 | 14.63487 | 36198 ft | 421 kts | 273° |
| 2026-05-01 15:21 | 40.60837 | 14.55774 | 36205 ft | 421 kts | 273° |
| 2026-05-01 15:21 | 40.60838 | 14.48063 | 36204 ft | 421 kts | 273° |
| 2026-05-01 15:22 | 40.60817 | 14.36496 | 36207 ft | 422 kts | 273° |
| 2026-05-01 15:22 | 40.60803 | 14.28781 | 36204 ft | 421 kts | 274° |
| 2026-05-01 15:23 | 40.60785 | 14.21120 | 36206 ft | 421 kts | 274° |
| 2026-05-01 15:23 | 40.60766 | 14.13409 | 36206 ft | 421 kts | 274° |
| 2026-05-01 15:24 | 40.60740 | 14.05706 | 36207 ft | 421 kts | 274° |
| 2026-05-01 15:24 | 40.60710 | 13.98003 | 36206 ft | 421 kts | 274° |
| 2026-05-01 15:25 | 40.60664 | 13.90296 | 36211 ft | 421 kts | 274° |
| 2026-05-01 15:25 | 40.60618 | 13.82593 | 36210 ft | 421 kts | 274° |
| 2026-05-01 15:26 | 40.60572 | 13.74889 | 36215 ft | 421 kts | 274° |
| 2026-05-01 15:26 | 40.60521 | 13.67185 | 36215 ft | 421 kts | 274° |
| 2026-05-01 15:27 | 40.60464 | 13.59485 | 36217 ft | 421 kts | 274° |
| 2026-05-01 15:28 | 40.60366 | 13.47945 | 36223 ft | 420 kts | 274° |
| 2026-05-01 15:28 | 40.60292 | 13.40271 | 36225 ft | 419 kts | 274° |
| 2026-05-01 15:29 | 40.60172 | 13.28786 | 36228 ft | 418 kts | 274° |
| 2026-05-01 15:30 | 40.59996 | 13.13506 | 36235 ft | 417 kts | 274° |
| 2026-05-01 15:31 | 40.59701 | 12.90643 | 36230 ft | 416 kts | 275° |
| 2026-05-01 15:32 | 40.59487 | 12.75406 | 36231 ft | 416 kts | 275° |
| 2026-05-01 15:34 | 40.59102 | 12.52573 | 36235 ft | 416 kts | 275° |